Flight Track Log - Related Links

Times and Time Zones

All times are in EDT time to prevent confusion due to time zone crossing. See the SWA59 flight status page for this flight to view local times or setup timezone preferences in your user account.

Time Position Orientation Groundspeed Altitude Reporting Facility
EDT Latitude Longitude Course Direction KTS MPH feet Rate Location/Type
Fri 10:09:29 PM 32.7711 -96.7736 141° Southeast 240 276 5,500  Level Fort Worth Center
Fri 10:10:29 PM 32.7044 -96.7936 194° South 239 275 8,700 2,900 Climbing Fort Worth Center
Fri 10:11:29 PM 32.6128 -96.7969 182° South 295 339 11,300 2,550 Climbing Fort Worth Center
Fri 10:12:29 PM 32.5167 -96.8025 183° South 358 412 13,800 2,800 Climbing Fort Worth Center
Fri 10:13:29 PM 32.3978 -96.8081 182° South 394 453 16,900 2,850 Climbing Fort Worth Center
Fri 10:14:29 PM 32.2956 -96.8114 182° South 406 467 19,500 2,450 Climbing Fort Worth Center
Fri 10:15:29 PM 32.1639 -96.8194 183° South 420 483 21,800 2,300 Climbing Fort Worth Center
Fri 10:16:29 PM 32.0428 -96.8228 181° South 425 489 24,100 2,200 Climbing Fort Worth Center
Fri 10:17:29 PM 31.9239 -96.8308 183° South 425 489 26,200 2,262 Climbing Fort Worth Center
Fri 10:18:39 PM 31.7831 -96.8339 181° South 435 501 29,000 2,107 Climbing Houston Center
Fri 10:19:40 PM 31.6628 -96.8300 178° South 430 495 30,800 1,623 Climbing Houston Center
Fri 10:20:41 PM 31.5375 -96.8108 173° South 445 512 32,300 1,082 Climbing Houston Center
Fri 10:21:42 PM 31.4150 -96.7753 166° South 450 518 33,000 347 Climbing Houston Center
Fri 10:22:42 PM 31.2956 -96.7167 157° South 458 527 33,000  Level Houston Center
Fri 10:23:43 PM 31.1781 -96.6597 157° South 453 521 33,000  Level Houston Center
Fri 10:24:44 PM 31.0581 -96.6033 158° South 456 525 33,000 -344 Level Houston Center
Fri 10:25:45 PM 30.9389 -96.5481 158° South 454 522 32,300 -984 Descending Houston Center
Fri 10:26:46 PM 30.8178 -96.4908 158° South 461 531 31,000 -3,000 Descending Houston Center
Fri 10:27:47 PM 30.6950 -96.4336 158° South 466 536 26,200 -4,015 Descending Houston Center
Fri 10:29:02 PM 30.5550 -96.3700 159° South 459 528 21,900 -3,492 Descending Houston Center
Fri 10:29:49 PM 30.4628 -96.3250 157° South 439 505 19,100 -3,452 Descending Houston Center
Fri 10:30:15 PM 30.4156 -96.3056 160° South 421 484 17,700 -3,443 Descending Houston Center
Fri 10:30:50 PM 30.3539 -96.2753 157° South 419 482 15,600 -3,443 Descending Houston Center
Fri 10:31:16 PM 30.3106 -96.2544 157° South 407 468 14,200 -3,344 Descending Houston Center
Fri 10:31:51 PM 30.2486 -96.2269 159° South 406 467 12,200 -3,500 Descending Houston Center
Fri 10:32:04 PM 30.2233 -96.2158 159° South 392 451 11,400 -1,180 Descending Houston Center
Fri 10:32:52 PM 30.1489 -96.1767 156° South 391 450 11,000 -329 Descending Houston Center
Fri 10:33:17 PM 30.1069 -96.1542 155° Southeast 390 449 11,000 -98 Level Houston Center
Fri 10:33:53 PM 30.0639 -96.1308 155° Southeast 391 450 10,900  Descending Houston Center
Fri 10:34:12 PM 30.0167 -96.1064 156° South 389 448 11,000 75 Climbing Houston Center
Fri 10:35:13 PM 29.9153 -96.0503 154° Southeast 385 443 11,000  Level Houston Center
Fri 10:35:55 PM 29.8772 -96.0053 134° Southeast 386 444 11,000  Level Houston Center
Fri 10:36:14 PM 29.8406 -95.9625 135° Southeast 386 444 11,000 -197 Level Houston Center
Fri 10:36:56 PM 29.8047 -95.9153 131° Southeast 384 442 10,800 -492 Descending Houston Center
Fri 10:37:15 PM 29.7911 -95.8528 104° East 390 449 10,500 -689 Descending Houston Center
Fri 10:37:57 PM 29.7792 -95.7722 100° East 379 436 10,100 -556 Descending Houston Center
Fri 10:38:09 PM 29.7781 -95.7508 93° East 340 391 10,000 -787 Descending Houston Center
Fri 10:38:58 PM 29.7647 -95.6747 101° East 312 359 9,300 -982 Descending Houston Center
Fri 10:39:04 PM 29.7639 -95.6633 95° East 289 333 9,100 -1,672 Descending Houston Center
Fri 10:39:59 PM 29.7578 -95.5833 95° East 291 335 7,600 -1,701 Descending Houston Center
Fri 10:40:11 PM 29.7589 -95.5606 87° East 289 333 7,200 -2,557 Descending Houston Center
Fri 10:41:00 PM 29.7642 -95.4961 85° East 277 319 5,000 -2,836 Descending Houston Center
Fri 10:41:06 PM 29.7644 -95.4828 89° East 261 300 4,600 -2,361 Descending Houston Center
Fri 10:42:01 PM 29.7642 -95.4181 90° East 250 288 2,600 -2,200 Descending Houston Center
Fri 10:42:06 PM 29.7578 -95.4092 130° Southeast 220 253 2,400 -700 Descending Houston Center
Fri 10:43:01 PM 29.7228 -95.3722 137° Southeast 170 196 1,900 -429 Descending Houston Center
Fri 10:43:02 PM 29.7250 -95.3761 303° West 207 238 2,000 -590 Climbing Houston Center
Fri 10:44:02 PM 29.6947 -95.3397 134° Southeast 141 162 1,300 -689 Descending Houston Center
Fri 10:44:03 PM 29.6972 -95.3411 334° Northwest 175 201 1,300 -590 Level Houston Center
Fri 10:45:03 PM 29.6711 -95.3111 135° Southeast 114 131 700 -492 Descending Houston Center
Fri 10:45:04 PM 29.6750 -95.3150 319° Northwest 142 163 800 -581 Climbing Houston Center
Fri 10:46:05 PM 29.6522 -95.2881 134° Southeast 125 144 100 -689 Descending Houston Center
Fri 10:48:00 PM 29.6454 -95.2789 115° Southeast  Level Estimated

Login

Don't have an account? Register now (free) for customized features, flight alerts, and more!